Time;durP1;ratioP1;P1;durP2;ratioP2;P2;SDS_P1;SDS_P2;PMS_P1;PMS_P2;Temp;Humidity;BMP_temperature;BMP_pressure;BME280_temperature;BME280_humidity;BME280_pressure;Samples;Min_cycle;Max_cycle;Signal;HPM_P1;HPM_P2
2022/11/01 00:02:07;;;;;;;62.30;33.10;;;;;;;12.30;100.00;100657.91;104102;1300;59851;-83
2022/11/01 00:04:33;;;;;;;67.10;33.70;;;;;;;12.28;100.00;100656.54;104754;1295;59210;-80
2022/11/01 00:07:00;;;;;;;70.20;33.80;;;;;;;12.25;100.00;100652.12;105388;1299;74496;-82
2022/11/01 00:09:26;;;;;;;65.20;33.70;;;;;;;12.23;100.00;100651.95;105439;1294;69895;-81
2022/11/01 00:11:53;;;;;;;64.40;33.30;;;;;;;12.20;100.00;100648.77;105193;1297;59013;-79
2022/11/01 00:14:20;;;;;;;62.70;33.60;;;;;;;12.17;100.00;100647.79;104974;1298;60460;-81
2022/11/01 00:16:47;;;;;;;64.50;34.10;;;;;;;12.14;100.00;100647.88;105315;1291;60854;-80
2022/11/01 00:19:14;;;;;;;68.20;33.80;;;;;;;12.13;100.00;100648.55;105376;1297;72304;-81
2022/11/01 00:21:40;;;;;;;64.10;34.10;;;;;;;12.11;100.00;100639.48;105431;1297;71520;-81
2022/11/01 00:24:07;;;;;;;63.00;32.90;;;;;;;12.08;100.00;100636.63;105463;1297;74147;-80
2022/11/01 00:26:33;;;;;;;66.10;33.50;;;;;;;12.05;100.00;100635.05;105501;1297;60956;-81
2022/11/01 00:29:00;;;;;;;61.50;33.00;;;;;;;12.01;100.00;100629.10;105534;1297;58778;-81
2022/11/01 00:31:26;;;;;;;60.80;32.70;;;;;;;11.98;100.00;100629.27;105439;1298;60402;-81
2022/11/01 00:33:53;;;;;;;58.90;31.50;;;;;;;11.96;100.00;100627.42;105536;1297;69747;-81
2022/11/01 00:36:19;;;;;;;58.90;32.20;;;;;;;11.94;100.00;100627.86;105604;1297;71646;-81
2022/11/01 00:38:52;;;;;;;63.70;33.80;;;;;;;11.92;100.00;100626.33;105423;1297;59236;-79
2022/11/01 00:41:22;;;;;;;60.70;33.00;;;;;;;11.92;100.00;100631.88;105476;1290;59321;-80
2022/11/01 00:43:48;;;;;;;62.00;33.60;;;;;;;11.92;100.00;100631.48;105372;1301;74251;-81
2022/11/01 00:46:16;;;;;;;60.00;31.80;;;;;;;11.93;100.00;100630.80;105493;1297;70280;-81
2022/11/01 00:48:42;;;;;;;63.40;32.90;;;;;;;11.94;100.00;100625.04;105433;1297;70515;-82
2022/11/01 00:51:09;;;;;;;59.70;32.10;;;;;;;11.95;100.00;100620.65;105533;1291;60397;-82
2022/11/01 00:53:35;;;;;;;64.40;32.50;;;;;;;11.95;100.00;100616.23;105541;1298;58767;-82
2022/11/01 00:56:07;;;;;;;60.80;31.40;;;;;;;11.95;100.00;100618.80;105320;1299;73689;-81
2022/11/01 00:58:34;;;;;;;58.40;31.50;;;;;;;11.95;100.00;100609.44;105332;1300;71447;-82
2022/11/01 01:01:01;;;;;;;56.60;31.20;;;;;;;11.96;100.00;100599.42;105261;1299;71189;-82
2022/11/01 01:03:28;;;;;;;63.90;33.40;;;;;;;11.96;100.00;100599.63;105502;1302;61033;-81
2022/11/01 01:05:54;;;;;;;62.10;33.60;;;;;;;11.97;100.00;100602.14;105370;1300;60494;-82
2022/11/01 01:08:21;;;;;;;63.80;32.70;;;;;;;12.00;100.00;100607.65;105258;1291;73630;-80
2022/11/01 01:10:48;;;;;;;67.30;33.20;;;;;;;12.03;100.00;100604.63;104837;1299;69958;-80
2022/11/01 01:13:15;;;;;;;61.70;33.20;;;;;;;12.06;100.00;100595.25;103760;1302;71309;-80
2022/11/01 01:15:42;;;;;;;63.70;32.90;;;;;;;12.08;100.00;100583.26;103718;1302;62048;-80
2022/11/01 01:18:09;;;;;;;56.80;32.00;;;;;;;12.09;100.00;100573.70;103401;1292;60481;-80
2022/11/01 01:20:36;;;;;;;67.10;33.40;;;;;;;12.10;100.00;100567.48;103627;1294;73419;-80
2022/11/01 01:23:03;;;;;;;56.10;32.40;;;;;;;12.10;100.00;100573.13;103645;1299;71194;-81
2022/11/01 01:25:30;;;;;;;61.80;32.30;;;;;;;12.10;100.00;100574.92;103608;1299;72567;-80
2022/11/01 01:27:56;;;;;;;64.10;32.80;;;;;;;12.09;100.00;100567.92;103855;1298;60604;-81
2022/11/01 01:30:23;;;;;;;66.50;34.50;;;;;;;12.08;100.00;100565.20;103887;1298;60508;-83
2022/11/01 01:32:49;;;;;;;61.60;33.70;;;;;;;12.07;100.00;100573.80;104914;1298;60665;-81
2022/11/01 01:35:16;;;;;;;62.60;32.10;;;;;;;12.07;100.00;100571.54;105418;1298;69848;-79
2022/11/01 01:37:43;;;;;;;58.20;32.00;;;;;;;12.06;100.00;100568.26;105355;1298;72764;-80
2022/11/01 01:40:09;;;;;;;62.50;32.80;;;;;;;12.05;100.00;100570.14;105369;1299;60858;-80
2022/11/01 01:42:39;;;;;;;61.80;32.50;;;;;;;12.04;100.00;100562.46;105180;1297;59046;-80
2022/11/01 01:45:22;;;;;;;57.10;32.30;;;;;;;12.03;100.00;100565.98;103700;1301;71769;-83
2022/11/01 01:47:52;;;;;;;61.50;32.50;;;;;;;12.02;100.00;100555.24;104001;1288;71138;-80
2022/11/01 01:50:28;;;;;;;61.80;32.40;;;;;;;12.02;100.00;100547.35;103820;1296;72513;-81
2022/11/01 01:52:59;;;;;;;58.30;33.40;;;;;;;12.01;100.00;100543.53;103673;1297;61912;-80
2022/11/01 01:55:41;;;;;;;55.00;32.00;;;;;;;12.00;100.00;100538.53;103928;1298;60272;-81
2022/11/01 01:58:11;;;;;;;58.20;32.60;;;;;;;11.98;100.00;100531.81;103513;1299;74446;-80
2022/11/01 02:00:38;;;;;;;57.10;33.20;;;;;;;11.97;100.00;100526.08;103789;1294;69819;-80
2022/11/01 02:03:06;;;;;;;60.20;32.60;;;;;;;11.97;100.00;100519.44;103998;1295;71367;-80
2022/11/01 02:05:33;;;;;;;59.00;33.80;;;;;;;11.96;100.00;100516.69;104044;1294;60987;-80
2022/11/01 02:08:00;;;;;;;58.70;33.40;;;;;;;11.95;100.00;100511.61;103822;1297;60801;-81
2022/11/01 02:10:30;;;;;;;56.90;32.40;;;;;;;11.95;100.00;100512.25;104124;1299;74018;-80
2022/11/01 02:12:57;;;;;;;60.80;34.30;;;;;;;11.94;100.00;100508.94;103843;1300;69559;-80
2022/11/01 02:15:33;;;;;;;59.00;33.70;;;;;;;11.94;100.00;100500.80;104156;1294;71805;-79
2022/11/01 02:18:19;;;;;;;62.20;33.60;;;;;;;11.95;100.00;100504.02;103884;1301;60055;-80
2022/11/01 02:21:01;;;;;;;59.70;33.80;;;;;;;11.96;100.00;100499.46;103956;1299;59241;-80
2022/11/01 02:23:28;;;;;;;62.10;34.50;;;;;;;11.97;100.00;100490.89;104111;1291;73562;-80
2022/11/01 02:26:06;;;;;;;64.60;35.50;;;;;;;11.96;100.00;100486.14;103941;1291;59323;-80
2022/11/01 02:29:01;;;;;;;63.00;34.30;;;;;;;11.96;100.00;100481.52;104157;1287;71486;-80
2022/11/01 02:31:56;;;;;;;60.90;34.40;;;;;;;11.97;100.00;100480.79;104048;1295;60441;-80
2022/11/01 02:34:29;;;;;;;59.50;34.70;;;;;;;11.97;100.00;100484.11;104029;1305;60550;-80
2022/11/01 02:37:10;;;;;;;54.80;32.60;;;;;;;11.98;100.00;100486.11;103854;1296;72277;-80
2022/11/01 02:39:41;;;;;;;58.60;33.90;;;;;;;11.99;100.00;100479.98;103886;1300;70350;-82
2022/11/01 02:42:17;;;;;;;60.50;34.00;;;;;;;11.99;100.00;100476.43;103956;1299;71850;-82
2022/11/01 02:44:50;;;;;;;59.10;33.80;;;;;;;12.00;100.00;100474.85;104083;1293;60865;-80
2022/11/01 02:47:18;;;;;;;57.30;32.90;;;;;;;12.02;100.00;100479.08;104082;1299;60320;-80
2022/11/01 02:49:58;;;;;;;60.00;34.80;;;;;;;12.02;100.00;100475.09;103895;1301;71869;-82
2022/11/01 02:52:28;;;;;;;61.80;33.50;;;;;;;12.04;100.00;100471.90;103830;1297;69569;-81
2022/11/01 02:54:58;;;;;;;56.60;34.00;;;;;;;12.06;100.00;100475.27;103720;1297;70816;-81
2022/11/01 02:57:27;;;;;;;57.60;33.10;;;;;;;12.06;100.00;100468.33;103510;1300;61056;-80
2022/11/01 03:00:01;;;;;;;56.60;33.10;;;;;;;12.08;100.00;100467.16;103968;1299;60598;-80
2022/11/01 03:02:40;;;;;;;57.60;33.70;;;;;;;12.09;100.00;100463.66;103225;1299;74477;-80
2022/11/01 03:05:21;;;;;;;61.60;35.70;;;;;;;12.10;100.00;100463.58;103512;1298;73051;-80
2022/11/01 03:07:55;;;;;;;61.10;34.50;;;;;;;12.12;100.00;100463.55;103760;1300;72413;-80
2022/11/01 03:10:36;;;;;;;53.50;32.40;;;;;;;12.12;100.00;100466.16;105443;1297;62424;-82
2022/11/01 03:13:50;;;;;;;53.70;33.20;;;;;;;12.11;100.00;100469.23;103984;1294;60594;-80
2022/11/01 03:16:44;;;;;;;50.50;31.00;;;;;;;12.13;100.00;100474.36;103428;1295;72578;-81
2022/11/01 03:19:36;;;;;;;54.40;32.30;;;;;;;12.12;100.00;100473.17;104135;1291;69816;-80
2022/11/01 03:22:17;;;;;;;49.50;30.50;;;;;;;12.12;100.00;100466.45;105298;1291;72577;-80
2022/11/01 03:25:02;;;;;;;51.70;33.00;;;;;;;12.12;100.00;100462.61;104454;1298;62142;-80
2022/11/01 03:27:38;;;;;;;52.50;32.90;;;;;;;12.14;100.00;100461.57;104188;1298;59595;-78
2022/11/01 03:30:08;;;;;;;46.10;31.20;;;;;;;12.15;100.00;100462.39;103874;1299;291004;-79
2022/11/01 03:32:42;;;;;;;53.60;32.60;;;;;;;12.15;100.00;100455.40;103106;1303;71139;-78
2022/11/01 03:35:14;;;;;;;49.10;30.70;;;;;;;12.16;100.00;100454.76;103514;1299;71539;-81
2022/11/01 03:37:43;;;;;;;50.70;29.70;;;;;;;12.16;100.00;100453.44;103228;1301;60990;-82
2022/11/01 03:40:13;;;;;;;44.40;28.60;;;;;;;12.11;100.00;100461.98;103389;1291;60650;-81
2022/11/01 03:42:45;;;;;;;51.60;32.40;;;;;;;12.08;100.00;100459.88;103329;1294;74619;-80
2022/11/01 03:45:15;;;;;;;51.00;31.50;;;;;;;12.08;100.00;100449.70;103297;1294;70042;-79
2022/11/01 03:47:42;;;;;;;57.00;33.00;;;;;;;12.10;100.00;100451.27;103571;1298;71177;-79
2022/11/01 03:50:25;;;;;;;51.60;31.50;;;;;;;12.14;100.00;100458.29;103131;1300;60736;-79
2022/11/01 03:52:51;;;;;;;57.00;32.20;;;;;;;12.15;100.00;100455.98;103107;1300;60546;-80
2022/11/01 03:55:19;;;;;;;52.50;31.10;;;;;;;12.15;100.00;100448.48;105083;1299;74212;-79
2022/11/01 03:57:49;;;;;;;51.80;31.30;;;;;;;12.18;100.00;100451.14;105262;1296;72688;-79
2022/11/01 04:00:23;;;;;;;56.00;31.50;;;;;;;12.21;100.00;100445.14;105006;1297;71499;-80
2022/11/01 04:02:51;;;;;;;53.50;31.60;;;;;;;12.24;100.00;100435.36;103592;1292;62460;-80
2022/11/01 04:05:19;;;;;;;57.70;31.80;;;;;;;12.28;100.00;100426.41;103272;1301;61677;-79
2022/11/01 04:07:46;;;;;;;53.20;31.60;;;;;;;12.32;100.00;100422.85;103397;1298;75507;-79
2022/11/01 04:10:14;;;;;;;47.80;28.70;;;;;;;12.35;100.00;100426.48;103406;1298;71808;-79
2022/11/01 04:12:44;;;;;;;45.40;27.30;;;;;;;12.36;100.00;100438.02;103388;1297;72573;-80
2022/11/01 04:20:48;;;;;;;50.40;30.00;;;;;;;12.39;100.00;100413.33;103324;1299;73953;-80
2022/11/01 04:23:15;;;;;;;48.70;28.10;;;;;;;12.42;100.00;100418.78;102960;1299;70844;-79
2022/11/01 04:25:44;;;;;;;49.00;29.70;;;;;;;12.46;100.00;100415.29;103186;1291;70164;-80
2022/11/01 04:28:12;;;;;;;47.00;29.00;;;;;;;12.49;100.00;100400.47;103177;1298;62304;-81
2022/11/01 04:30:39;;;;;;;45.70;28.00;;;;;;;12.54;100.00;100402.17;102984;1300;62027;-80
2022/11/01 04:33:05;;;;;;;45.20;28.10;;;;;;;12.59;100.00;100396.71;103235;1300;72853;-80
2022/11/01 04:35:34;;;;;;;45.90;28.90;;;;;;;12.63;100.00;100395.67;103867;1292;70302;-80
2022/11/01 04:38:01;;;;;;;45.90;26.80;;;;;;;12.67;100.00;100408.55;103727;1299;72537;-81
2022/11/01 04:40:28;;;;;;;44.30;27.60;;;;;;;12.68;100.00;100422.96;103153;1283;60589;-81
2022/11/01 04:42:54;;;;;;;44.50;28.00;;;;;;;12.67;100.00;100431.57;103305;1291;60527;-80
2022/11/01 04:45:21;;;;;;;39.80;25.80;;;;;;;12.69;100.00;100440.41;103282;1298;60432;-80
2022/11/01 04:47:51;;;;;;;39.30;25.90;;;;;;;12.72;100.00;100439.36;103206;1295;60487;-80
2022/11/01 04:50:21;;;;;;;38.40;25.70;;;;;;;12.75;100.00;100441.16;103047;1297;74594;-81
2022/11/01 04:52:47;;;;;;;38.10;24.40;;;;;;;12.79;100.00;100443.84;103362;1297;61079;-81
2022/11/01 04:55:14;;;;;;;39.40;25.20;;;;;;;12.82;100.00;100450.37;103435;1295;60417;-81
2022/11/01 04:57:41;;;;;;;39.80;25.20;;;;;;;12.85;100.00;100458.38;103152;1292;72878;-81
2022/11/01 05:00:11;;;;;;;34.50;22.70;;;;;;;12.86;100.00;100454.04;103159;1300;70965;-79
2022/11/01 05:02:39;;;;;;;37.30;24.70;;;;;;;12.85;100.00;100444.69;103059;1302;72446;-81
2022/11/01 05:05:08;;;;;;;40.10;25.00;;;;;;;12.87;100.00;100442.58;103047;1303;61856;-80
2022/11/01 05:07:35;;;;;;;36.40;24.50;;;;;;;12.90;100.00;100448.53;103116;1294;60641;-81
2022/11/01 05:10:03;;;;;;;37.30;24.20;;;;;;;12.91;100.00;100454.20;103671;1298;73244;-81
2022/11/01 05:12:29;;;;;;;36.30;23.00;;;;;;;12.90;100.00;100450.27;103289;1291;71075;-80
2022/11/01 05:14:56;;;;;;;34.40;22.90;;;;;;;12.89;100.00;100455.95;103351;1299;71458;-80
2022/11/01 05:17:23;;;;;;;32.10;21.50;;;;;;;12.87;100.00;100457.74;103507;1291;60959;-80
2022/11/01 05:19:49;;;;;;;33.10;21.70;;;;;;;12.86;100.00;100452.73;103228;1299;60595;-80
2022/11/01 05:22:16;;;;;;;31.90;21.90;;;;;;;12.86;100.00;100455.77;103432;1291;73434;-80
2022/11/01 05:24:43;;;;;;;30.70;21.50;;;;;;;12.87;100.00;100449.21;105217;1297;69980;-80
2022/11/01 05:27:09;;;;;;;31.60;20.40;;;;;;;12.91;100.00;100447.02;103970;1295;70302;-80
2022/11/01 05:29:36;;;;;;;35.10;22.00;;;;;;;12.92;100.00;100452.89;103775;1285;60583;-83
2022/11/01 05:32:02;;;;;;;31.90;20.80;;;;;;;12.94;100.00;100456.02;103911;1290;60523;-83
2022/11/01 05:34:29;;;;;;;31.80;20.90;;;;;;;12.97;100.00;100457.79;103626;1298;74191;-81
2022/11/01 05:36:56;;;;;;;31.60;20.70;;;;;;;12.97;100.00;100453.08;103723;1295;69958;-83
2022/11/01 05:39:22;;;;;;;31.90;19.00;;;;;;;13.03;100.00;100453.72;103745;1298;73838;-82
2022/11/01 05:41:49;;;;;;;26.90;18.40;;;;;;;13.08;100.00;100456.02;103811;1300;61401;-81
2022/11/01 05:44:15;;;;;;;26.90;17.70;;;;;;;13.14;100.00;100458.05;104432;1289;60612;-81
2022/11/01 05:46:42;;;;;;;26.10;17.60;;;;;;;13.20;100.00;100463.45;104863;1294;60410;-80
2022/11/01 05:49:08;;;;;;;22.40;15.20;;;;;;;13.28;100.00;100465.20;104002;1297;60518;-82
2022/11/01 05:51:35;;;;;;;23.10;13.60;;;;;;;13.36;100.00;100466.08;103664;1291;60450;-82
2022/11/01 05:54:01;;;;;;;18.30;12.40;;;;;;;13.49;100.00;100469.23;103725;1301;60502;-82
2022/11/01 05:56:28;;;;;;;19.60;11.70;;;;;;;13.61;100.00;100470.23;103660;1300;60486;-81
2022/11/01 05:58:54;;;;;;;19.10;10.40;;;;;;;13.76;99.73;100475.31;103687;1301;60475;-81
2022/11/01 06:01:21;;;;;;;17.90;9.30;;;;;;;13.92;99.19;100476.75;103999;1291;60416;-83
2022/11/01 06:03:49;;;;;;;14.60;8.50;;;;;;;14.07;98.29;100476.32;103968;1295;60933;-81
2022/11/01 06:06:15;;;;;;;13.90;8.20;;;;;;;14.22;97.39;100477.92;103331;1302;61429;-81
2022/11/01 06:08:42;;;;;;;13.70;7.90;;;;;;;14.34;96.62;100482.59;103012;1298;60460;-76
2022/11/01 06:11:08;;;;;;;13.20;7.70;;;;;;;14.47;95.82;100485.41;102484;1295;60546;-77
2022/11/01 06:13:35;;;;;;;13.70;7.60;;;;;;;14.61;95.12;100490.02;102274;1292;60495;-78
2022/11/01 06:16:04;;;;;;;14.90;8.00;;;;;;;14.75;94.22;100494.67;102480;1298;60535;-77
2022/11/01 06:18:31;;;;;;;14.90;8.10;;;;;;;14.86;92.88;100498.75;102634;1299;61923;-80
2022/11/01 06:20:58;;;;;;;15.60;8.90;;;;;;;14.94;91.97;100493.58;104795;1292;60833;-75
2022/11/01 06:23:25;;;;;;;14.70;8.60;;;;;;;15.00;91.39;100495.56;102813;1298;72761;-77
2022/11/01 06:25:59;;;;;;;16.20;8.00;;;;;;;15.06;91.06;100493.09;102377;1292;60467;-75
2022/11/01 06:28:26;;;;;;;24.80;16.10;;;;;;;15.11;90.45;100483.67;102414;1299;70749;-76
2022/11/01 06:30:52;;;;;;;32.80;20.30;;;;;;;15.15;90.42;100481.44;102480;1294;60521;-77
2022/11/01 06:33:20;;;;;;;34.60;22.00;;;;;;;15.19;90.10;100481.95;102912;1301;60562;-78
2022/11/01 06:35:46;;;;;;;26.40;17.70;;;;;;;15.23;89.93;100480.34;103236;1295;72694;-78
2022/11/01 06:38:12;;;;;;;15.60;8.80;;;;;;;15.27;89.99;100484.86;102482;1292;60540;-77
2022/11/01 06:40:39;;;;;;;25.50;16.80;;;;;;;15.27;89.39;100492.95;102416;1294;60579;-77
2022/11/01 06:43:06;;;;;;;21.90;11.70;;;;;;;15.29;89.30;100497.01;102291;1298;60996;-78
2022/11/01 06:45:32;;;;;;;13.10;6.90;;;;;;;15.30;89.11;100497.79;102328;1291;60927;-78
2022/11/01 06:47:59;;;;;;;14.50;7.50;;;;;;;15.30;89.13;100500.02;102362;1299;60607;-77
2022/11/01 06:50:26;;;;;;;11.30;6.80;;;;;;;15.31;88.98;100507.45;102736;1291;70559;-79
2022/11/01 06:52:57;;;;;;;63.50;42.60;;;;;;;15.32;88.85;100515.80;102639;1292;60429;-77
2022/11/01 06:55:25;;;;;;;22.50;12.50;;;;;;;15.35;88.82;100523.52;102721;1295;61169;-80
2022/11/01 06:57:57;;;;;;;27.90;18.80;;;;;;;15.36;88.59;100525.86;102522;1284;60572;-79
2022/11/01 07:00:25;;;;;;;17.40;10.10;;;;;;;15.37;88.45;100521.80;102528;1294;74814;-78
2022/11/01 07:03:03;;;;;;;17.00;8.40;;;;;;;15.38;88.39;100530.48;102683;1291;69653;-77
2022/11/01 07:05:32;;;;;;;13.50;8.30;;;;;;;15.41;88.31;100530.77;103096;1299;70962;-78
2022/11/01 07:08:05;;;;;;;15.60;8.00;;;;;;;15.42;88.01;100543.34;103499;1298;60742;-77
2022/11/01 07:10:32;;;;;;;11.10;6.70;;;;;;;15.44;87.95;100545.90;102936;1298;60713;-77
2022/11/01 07:13:00;;;;;;;13.60;6.60;;;;;;;15.46;87.85;100547.36;102962;1294;73818;-80
2022/11/01 07:15:28;;;;;;;22.80;14.60;;;;;;;15.49;87.65;100550.52;103447;1298;70251;-74
2022/11/01 07:17:55;;;;;;;11.50;6.70;;;;;;;15.54;87.34;100548.55;102706;1294;71110;-76
2022/11/01 07:20:23;;;;;;;23.00;14.90;;;;;;;15.58;87.07;100555.23;102517;1298;60559;-76
2022/11/01 07:23:04;;;;;;;16.60;10.20;;;;;;;15.62;86.78;100550.08;102527;1298;60469;-78
2022/11/01 07:25:32;;;;;;;19.50;10.40;;;;;;;15.66;86.53;100555.85;102791;1293;74687;-77
2022/11/01 07:27:58;;;;;;;20.40;12.40;;;;;;;15.70;86.19;100560.16;102722;1295;69603;-77
2022/11/01 07:30:26;;;;;;;13.20;6.20;;;;;;;15.75;85.88;100565.53;102348;1299;72936;-77
2022/11/01 07:33:00;;;;;;;10.50;5.60;;;;;;;15.81;85.86;100567.80;102690;1291;63531;-77
2022/11/01 07:35:28;;;;;;;16.50;9.50;;;;;;;15.85;85.57;100567.95;102590;1298;60835;-79
2022/11/01 07:37:59;;;;;;;34.00;22.30;;;;;;;15.89;85.62;100570.55;102658;1298;73682;-78
2022/11/01 07:40:29;;;;;;;10.70;5.20;;;;;;;15.94;85.55;100570.73;102623;1295;71649;-77
2022/11/01 07:42:59;;;;;;;10.40;5.50;;;;;;;15.98;85.10;100566.90;102530;1297;71809;-77
2022/11/01 07:45:28;;;;;;;17.10;9.90;;;;;;;16.01;84.94;100569.64;102756;1291;61751;-78
2022/11/01 07:48:01;;;;;;;21.50;13.20;;;;;;;16.06;84.82;100576.44;103250;1302;60587;-77
2022/11/01 07:50:30;;;;;;;8.30;4.80;;;;;;;16.11;84.76;100579.84;104156;1298;74711;-76
2022/11/01 07:53:07;;;;;;;11.80;6.50;;;;;;;16.14;84.65;100582.99;104217;1298;69062;-76
2022/11/01 07:55:44;;;;;;;11.50;6.50;;;;;;;16.18;84.39;100587.78;104185;1297;70932;-76
2022/11/01 07:58:11;;;;;;;10.70;5.10;;;;;;;16.22;84.08;100587.92;103273;1291;62786;-78
2022/11/01 08:00:40;;;;;;;16.10;8.70;;;;;;;16.26;83.91;100586.88;102831;1299;60719;-78
2022/11/01 08:03:11;;;;;;;9.00;4.90;;;;;;;16.30;83.99;100577.99;103183;1292;72471;-76
2022/11/01 08:05:37;;;;;;;14.90;9.50;;;;;;;16.35;83.89;100579.52;102857;1298;71533;-78
2022/11/01 08:08:05;;;;;;;9.70;5.20;;;;;;;16.36;83.46;100577.02;102850;1292;60475;-79
2022/11/01 08:10:33;;;;;;;24.90;15.90;;;;;;;16.40;83.58;100581.48;102723;1294;60576;-79
2022/11/01 08:13:12;;;;;;;38.80;25.70;;;;;;;16.45;83.53;100580.69;102793;1292;60591;-77
2022/11/01 08:15:39;;;;;;;25.10;16.00;;;;;;;16.51;83.11;100582.05;103828;1294;73934;-78
2022/11/01 08:18:05;;;;;;;19.50;12.10;;;;;;;16.54;82.80;100586.98;102546;1294;69833;-78
2022/11/01 08:20:33;;;;;;;14.60;9.10;;;;;;;16.58;82.63;100587.41;102677;1291;71259;-77
2022/11/01 08:22:59;;;;;;;22.90;12.90;;;;;;;16.58;82.24;100592.15;102490;1298;60470;-79
2022/11/01 08:25:26;;;;;;;17.20;10.80;;;;;;;16.59;82.25;100589.66;102701;1295;60544;-77
2022/11/01 08:27:53;;;;;;;15.50;10.20;;;;;;;16.62;82.24;100593.39;102594;1294;60480;-79
2022/11/01 08:30:20;;;;;;;35.20;23.60;;;;;;;16.65;81.80;100588.20;102601;1289;60940;-77
2022/11/01 08:32:46;;;;;;;16.30;11.00;;;;;;;16.68;81.37;100587.38;102375;1301;73553;-77
2022/11/01 08:35:13;;;;;;;15.10;8.50;;;;;;;16.74;81.14;100588.04;102626;1291;61034;-81
2022/11/01 08:37:50;;;;;;;19.90;11.90;;;;;;;16.79;81.00;100590.27;102716;1299;60475;-77
2022/11/01 08:40:18;;;;;;;23.70;14.10;;;;;;;16.86;80.78;100590.31;102362;1301;74235;-78
2022/11/01 08:42:44;;;;;;;19.60;12.90;;;;;;;16.92;80.13;100599.66;102398;1298;71192;-78
2022/11/01 08:45:11;;;;;;;17.10;11.50;;;;;;;16.99;79.82;100600.14;102398;1294;73299;-76
2022/11/01 08:47:39;;;;;;;13.70;8.80;;;;;;;17.08;79.74;100609.38;102472;1295;63281;-79
2022/11/01 08:50:08;;;;;;;9.80;4.40;;;;;;;17.18;79.84;100615.84;102503;1295;60624;-79
2022/11/01 08:52:37;;;;;;;12.20;6.70;;;;;;;17.30;79.89;100620.14;102647;1301;71905;-83
2022/11/01 08:55:04;;;;;;;25.70;16.70;;;;;;;17.43;79.46;100629.70;102621;1294;70637;-79
2022/11/01 08:57:30;;;;;;;8.60;4.10;;;;;;;17.54;78.24;100636.07;102699;1291;71128;-77
2022/11/01 08:59:56;;;;;;;26.20;15.20;;;;;;;17.65;78.22;100636.62;102500;1291;60537;-80
2022/11/01 09:02:23;;;;;;;20.20;12.90;;;;;;;17.75;77.70;100639.39;102560;1294;60580;-77
2022/11/01 09:04:50;;;;;;;10.90;5.10;;;;;;;17.85;76.96;100635.71;102687;1292;72698;-78
2022/11/01 09:07:16;;;;;;;23.20;15.30;;;;;;;17.97;77.08;100637.64;102729;1293;60508;-79
2022/11/01 09:09:43;;;;;;;13.00;7.20;;;;;;;18.09;76.24;100634.44;103258;1301;59267;-82
2022/11/01 09:12:11;;;;;;;22.60;15.40;;;;;;;18.17;75.58;100633.80;103622;1301;61094;-82
2022/11/01 09:14:40;;;;;;;21.00;13.40;;;;;;;18.19;74.74;100633.61;103394;1297;60582;-81
2022/11/01 09:17:10;;;;;;;19.70;11.50;;;;;;;18.20;74.65;100631.98;103194;1303;73407;-78
2022/11/01 09:19:36;;;;;;;14.00;8.10;;;;;;;18.17;73.88;100640.34;102338;1304;70026;-77
2022/11/01 09:22:03;;;;;;;18.10;11.50;;;;;;;18.15;73.93;100636.58;102166;1299;60514;-79
2022/11/01 09:24:29;;;;;;;7.60;4.30;;;;;;;18.13;73.91;100638.73;102027;1302;61008;-78
2022/11/01 09:26:56;;;;;;;7.20;3.30;;;;;;;18.12;73.87;100639.13;102223;1295;60576;-78
2022/11/01 09:29:22;;;;;;;11.60;6.90;;;;;;;18.15;73.93;100645.27;102055;1304;60524;-79
2022/11/01 09:31:51;;;;;;;13.40;8.40;;;;;;;18.14;73.17;100646.98;102294;1304;60477;-78
2022/11/01 09:34:18;;;;;;;12.30;7.10;;;;;;;18.08;72.54;100650.67;102194;1304;70542;-77
2022/11/01 09:36:46;;;;;;;15.30;9.20;;;;;;;18.08;72.84;100656.30;102494;1302;61212;-77
2022/11/01 09:39:15;;;;;;;17.90;11.40;;;;;;;18.08;72.91;100657.74;102349;1300;60557;-77
2022/11/01 09:41:46;;;;;;;10.90;6.60;;;;;;;18.11;73.11;100660.48;102363;1294;72994;-79
2022/11/01 09:44:26;;;;;;;21.30;15.10;;;;;;;18.12;72.93;100665.45;102271;1296;70375;-77
2022/11/01 09:46:57;;;;;;;16.30;10.30;;;;;;;18.12;72.37;100667.20;102132;1305;70409;-77
2022/11/01 09:49:37;;;;;;;9.10;4.70;;;;;;;18.11;72.43;100667.12;102378;1295;61985;-78
2022/11/01 09:52:06;;;;;;;11.90;7.30;;;;;;;18.09;72.36;100664.34;102435;1296;60553;-77
2022/11/01 09:54:33;;;;;;;10.40;6.40;;;;;;;18.05;71.79;100671.04;102281;1299;73988;-79
2022/11/01 09:57:03;;;;;;;9.30;3.70;;;;;;;18.04;71.41;100673.73;102361;1296;60981;-78
2022/11/01 09:59:42;;;;;;;10.50;5.70;;;;;;;18.00;70.89;100677.86;102233;1304;72561;-79
2022/11/01 10:02:29;;;;;;;12.30;5.60;;;;;;;17.95;70.88;100683.86;103631;1297;61632;-81
2022/11/01 10:05:14;;;;;;;7.80;4.10;;;;;;;17.93;70.99;100687.48;104494;1303;61912;-79
2022/11/01 10:08:22;;;;;;;6.00;3.20;;;;;;;17.94;71.42;100680.00;103325;1297;72330;-80
2022/11/01 10:11:07;;;;;;;10.20;3.70;;;;;;;17.94;71.36;100675.02;103440;1296;71238;-80
2022/11/01 10:14:09;;;;;;;9.00;3.80;;;;;;;17.96;71.31;100668.05;103581;1296;71674;-80
2022/11/01 10:16:42;;;;;;;9.60;3.10;;;;;;;17.96;70.95;100668.73;103596;1303;60427;-80
2022/11/01 10:19:13;;;;;;;6.40;2.50;;;;;;;17.95;70.68;100670.24;103904;1304;60590;-81
2022/11/01 10:21:48;;;;;;;6.40;2.80;;;;;;;17.92;70.44;100669.75;103011;1300;73459;-77
2022/11/01 10:24:18;;;;;;;5.90;2.60;;;;;;;17.90;69.99;100676.09;102969;1301;70000;-78
2022/11/01 10:26:46;;;;;;;8.40;3.00;;;;;;;17.98;69.16;100685.53;104687;1293;71201;-79
2022/11/01 10:29:16;;;;;;;8.50;2.60;;;;;;;18.13;69.57;100688.83;103959;1293;60580;-77
2022/11/01 10:31:46;;;;;;;8.50;2.50;;;;;;;18.25;68.76;100694.42;104397;1296;61029;-76
2022/11/01 10:34:22;;;;;;;8.60;2.90;;;;;;;18.29;68.07;100696.52;103518;1294;73752;-77
2022/11/01 10:36:51;;;;;;;6.50;2.70;;;;;;;18.33;68.09;100701.31;102709;1288;71020;-78
2022/11/01 10:39:44;;;;;;;6.50;2.80;;;;;;;18.39;67.33;100701.35;102191;1296;72335;-77
2022/11/01 10:42:22;;;;;;;7.70;2.40;;;;;;;18.46;66.85;100709.98;102565;1301;60806;-78
2022/11/01 10:44:54;;;;;;;12.30;5.30;;;;;;;18.59;67.21;100713.41;102379;1300;60662;-78
2022/11/01 10:47:23;;;;;;;6.00;2.40;;;;;;;18.73;66.58;100708.46;102288;1297;73459;-77
2022/11/01 10:50:10;;;;;;;6.20;4.20;;;;;;;18.81;66.18;100715.77;102338;1301;70062;-77
2022/11/01 10:52:50;;;;;;;9.60;5.20;;;;;;;18.91;65.52;100712.39;102915;1296;72592;-78
2022/11/01 10:55:23;;;;;;;8.30;3.30;;;;;;;18.92;64.20;100724.41;102285;1304;60485;-76
2022/11/01 10:57:56;;;;;;;5.30;2.20;;;;;;;18.97;63.77;100715.07;102848;1302;61841;-77
2022/11/01 11:00:22;;;;;;;7.20;4.20;;;;;;;18.95;62.74;100720.16;102391;1301;73886;-77
2022/11/01 11:02:55;;;;;;;6.50;2.20;;;;;;;18.82;62.12;100723.48;102201;1297;60761;-78
2022/11/01 11:05:24;;;;;;;8.70;4.00;;;;;;;18.71;61.43;100719.52;102146;1303;71393;-77
2022/11/01 11:07:51;;;;;;;6.20;3.70;;;;;;;18.60;60.04;100723.64;102616;1301;60253;-76
2022/11/01 11:10:27;;;;;;;7.90;2.90;;;;;;;18.59;60.20;100729.09;102552;1296;60469;-77
2022/11/01 11:13:05;;;;;;;5.20;2.10;;;;;;;18.66;57.97;100719.02;102935;1294;72498;-78
2022/11/01 11:15:44;;;;;;;5.20;1.50;;;;;;;18.77;56.62;100740.13;102758;1283;71234;-78
2022/11/01 11:18:28;;;;;;;5.80;1.50;;;;;;;18.90;56.45;100752.69;102798;1297;71707;-77
2022/11/01 11:20:59;;;;;;;4.70;1.40;;;;;;;19.02;55.92;100745.31;103882;1286;60623;-77
2022/11/01 11:23:35;;;;;;;4.70;1.50;;;;;;;19.15;55.54;100744.51;102428;1303;60544;-79